createdAt,value
2022-10-28T00:03:42.486Z,2.45
2022-10-28T00:07:44.105Z,2.80
2022-10-28T00:11:45.731Z,1.25
2022-10-28T00:15:47.282Z,1.40
2022-10-28T00:19:48.867Z,2.15
2022-10-28T00:23:50.832Z,1.65
2022-10-28T00:27:52.985Z,1.75
2022-10-28T00:31:55.753Z,2.13
2022-10-28T00:35:57.362Z,1.63
2022-10-28T00:39:58.922Z,1.60
2022-10-28T00:44:04.017Z,1.65
2022-10-28T00:48:06.273Z,1.58
2022-10-28T00:52:13.964Z,1.27
2022-10-28T00:56:17.244Z,1.55
2022-10-28T01:00:19.027Z,2.13
2022-10-28T01:04:21.939Z,2.03
2022-10-28T01:08:23.554Z,1.50
2022-10-28T01:12:41.049Z,1.45
2022-10-28T01:16:50.054Z,1.95
2022-10-28T01:21:13.729Z,1.67
2022-10-28T01:25:39.183Z,1.42
2022-10-28T01:30:03.005Z,1.67
2022-10-28T01:34:32.034Z,1.83
2022-10-28T01:38:48.270Z,1.52
2022-10-28T01:43:06.429Z,1.80
2022-10-28T01:47:51.544Z,1.70
2022-10-28T01:51:57.121Z,1.35
2022-10-28T01:56:04.735Z,2.37
2022-10-28T02:00:07.590Z,3.53
2022-10-28T02:04:09.290Z,1.95
2022-10-28T02:08:25.939Z,2.90
2022-10-28T02:12:36.806Z,1.65
2022-10-28T02:17:06.222Z,1.27
2022-10-28T02:21:32.571Z,1.90
2022-10-28T02:25:58.147Z,2.25
2022-10-28T02:30:07.793Z,1.50
2022-10-28T02:34:14.320Z,1.38
2022-10-28T02:38:22.258Z,1.60
2022-10-28T02:42:49.332Z,1.98
2022-10-28T02:46:52.503Z,2.63
2022-10-28T02:51:00.417Z,1.63
2022-10-28T02:55:05.700Z,1.33
2022-10-28T02:59:12.349Z,4.13
2022-10-28T03:03:14.210Z,2.67
2022-10-28T03:07:15.830Z,1.98
2022-10-28T03:11:19.273Z,2.45
2022-10-28T03:15:20.883Z,1.90
2022-10-28T03:19:22.457Z,1.27
2022-10-28T03:23:24.030Z,1.45
2022-10-28T03:27:25.615Z,2.67
2022-10-28T03:31:27.285Z,1.25
2022-10-28T03:35:28.898Z,1.92
2022-10-28T03:39:30.478Z,1.40
2022-10-28T03:43:32.090Z,1.45
2022-10-28T03:47:34.894Z,1.35
2022-10-28T03:51:36.501Z,2.38
2022-10-28T03:55:38.109Z,1.35
2022-10-28T03:59:39.684Z,1.30
2022-10-28T04:03:41.313Z,1.85
2022-10-28T04:07:42.914Z,1.73
2022-10-28T04:11:47.232Z,3.90
2022-10-28T04:15:48.883Z,1.20
2022-10-28T04:19:50.520Z,1.73
2022-10-28T04:23:52.123Z,1.30
2022-10-28T04:27:54.615Z,1.30
2022-10-28T04:31:56.529Z,1.30
2022-10-28T04:35:58.120Z,1.42
2022-10-28T04:39:59.706Z,1.27
2022-10-28T04:44:01.293Z,2.15
2022-10-28T04:48:03.051Z,1.25
2022-10-28T04:52:04.939Z,3.58
2022-10-28T04:56:06.804Z,1.25
2022-10-28T05:00:09.198Z,1.38
2022-10-28T05:04:10.786Z,1.35
2022-10-28T05:08:12.402Z,1.67
2022-10-28T05:12:14.040Z,1.52
2022-10-28T05:16:15.692Z,1.52
2022-10-28T05:20:18.769Z,2.08
2022-10-28T05:24:20.393Z,1.40
2022-10-28T05:28:22.132Z,2.67
2022-10-28T05:32:23.754Z,3.30
2022-10-28T05:36:25.325Z,4.50
2022-10-28T05:40:26.931Z,2.00
2022-10-28T05:44:28.598Z,4.55
2022-10-28T05:48:30.317Z,6.05
2022-10-28T05:52:31.929Z,4.32
2022-10-28T05:56:33.606Z,7.18
2022-10-28T06:00:35.528Z,7.68
2022-10-28T06:04:37.121Z,8.10
2022-10-28T06:08:38.802Z,6.63
2022-10-28T06:12:38.955Z,9.25
2022-10-28T06:16:40.620Z,7.70
2022-10-28T06:20:42.210Z,7.93
2022-10-28T06:24:43.995Z,8.23
2022-10-28T06:28:46.979Z,8.00
2022-10-28T06:32:48.677Z,13.60
2022-10-28T06:36:50.333Z,8.55
2022-10-28T06:40:52.626Z,11.73
2022-10-28T06:44:54.496Z,13.27
2022-10-28T06:48:57.685Z,7.00
2022-10-28T06:52:59.628Z,9.20
2022-10-28T06:57:01.257Z,7.72
2022-10-28T07:01:04.814Z,11.32
2022-10-28T07:05:06.873Z,9.45
2022-10-28T07:09:09.281Z,8.32
2022-10-28T07:13:10.908Z,10.82
2022-10-28T07:17:12.539Z,7.82
2022-10-28T07:21:14.347Z,3.70
2022-10-28T07:25:16.075Z,9.20
2022-10-28T07:29:17.737Z,9.20
2022-10-28T07:33:19.631Z,5.72
2022-10-28T07:37:21.221Z,7.55
2022-10-28T07:41:23.141Z,4.80
2022-10-28T07:45:25.081Z,8.23
2022-10-28T07:49:26.713Z,7.28
2022-10-28T07:53:29.084Z,5.10
2022-10-28T07:57:31.102Z,8.68
2022-10-28T08:01:32.884Z,6.40
2022-10-28T08:05:34.530Z,7.25
2022-10-28T08:09:36.148Z,6.22
2022-10-28T08:13:40.123Z,10.77
2022-10-28T08:17:42.058Z,8.95
2022-10-28T08:21:43.726Z,7.70
2022-10-28T08:25:49.791Z,9.95
2022-10-28T08:33:54.864Z,7.47
2022-10-28T08:37:56.710Z,8.25
2022-10-28T08:42:07.921Z,8.85
2022-10-28T08:46:09.469Z,8.57
2022-10-28T08:50:14.914Z,8.25
2022-10-28T08:54:40.288Z,6.95
2022-10-28T08:58:44.708Z,5.10
2022-10-28T09:03:09.544Z,6.15
2022-10-28T09:07:20.304Z,6.10
2022-10-28T09:11:43.384Z,7.50
2022-10-28T09:15:54.941Z,8.48
2022-10-28T09:20:19.636Z,7.10
2022-10-28T09:24:29.655Z,5.32
2022-10-28T09:28:51.264Z,9.52
2022-10-28T09:33:18.882Z,7.47
2022-10-28T09:37:30.306Z,6.13
2022-10-28T09:41:39.168Z,7.47
2022-10-28T09:45:45.792Z,6.63
2022-10-28T09:49:49.552Z,4.82
2022-10-28T09:53:56.341Z,4.10
2022-10-28T09:57:58.238Z,8.00
2022-10-28T10:02:00.165Z,4.32
2022-10-28T10:06:28.531Z,3.42
2022-10-28T10:10:50.425Z,5.85
2022-10-28T10:14:56.582Z,4.40
2022-10-28T10:23:01.052Z,4.95
2022-10-28T10:27:10.361Z,5.53
2022-10-28T10:31:27.229Z,4.50
2022-10-28T10:35:31.899Z,4.18
2022-10-28T10:39:37.179Z,4.68
2022-10-28T10:43:39.897Z,3.80
2022-10-28T10:47:42.336Z,4.40
2022-10-28T10:51:57.011Z,4.05
2022-10-28T10:56:02.255Z,4.65
2022-10-28T11:00:04.625Z,3.50
2022-10-28T11:04:08.505Z,2.80
2022-10-28T11:08:22.701Z,5.10
2022-10-28T11:12:36.749Z,3.78
2022-10-28T11:16:50.183Z,5.18
2022-10-28T11:20:55.124Z,5.43
2022-10-28T11:25:21.123Z,3.20
2022-10-28T11:29:22.919Z,3.63
2022-10-28T11:33:44.970Z,5.65
2022-10-28T11:38:07.161Z,4.93
2022-10-28T11:42:20.557Z,4.10
2022-10-28T11:46:41.134Z,4.28
2022-10-28T11:51:01.581Z,5.55
2022-10-28T11:55:12.896Z,5.22
2022-10-28T11:59:23.621Z,4.72
2022-10-28T12:03:36.993Z,3.55
2022-10-28T12:08:15.608Z,3.60
2022-10-28T12:16:53.400Z,5.00
2022-10-28T12:21:24.035Z,4.40
2022-10-28T12:25:29.793Z,3.88
2022-10-28T12:29:37.246Z,4.20
2022-10-28T12:33:45.541Z,4.07
2022-10-28T12:38:10.940Z,3.22
2022-10-28T12:42:28.193Z,8.93
2022-10-28T12:46:55.360Z,5.05
2022-10-28T12:51:21.850Z,5.00
2022-10-28T12:55:58.755Z,3.40
2022-10-28T13:00:16.051Z,3.58
2022-10-28T13:04:18.748Z,5.25
2022-10-28T13:08:36.438Z,4.40
2022-10-28T13:12:58.486Z,5.93
2022-10-28T13:17:17.949Z,4.43
2022-10-28T13:21:40.518Z,6.53
2022-10-28T13:25:54.329Z,6.60
2022-10-28T13:29:58.952Z,4.10
2022-10-28T13:34:00.867Z,6.10
2022-10-28T13:38:09.177Z,3.65
2022-10-28T13:42:13.528Z,5.95
2022-10-28T13:46:52.741Z,4.55
2022-10-28T13:51:09.255Z,5.53
2022-10-28T13:55:27.226Z,3.40
2022-10-28T13:59:34.028Z,3.10
2022-10-28T14:03:36.686Z,4.00
2022-10-28T14:08:02.417Z,2.50
2022-10-28T14:12:28.661Z,2.65
2022-10-28T14:16:42.859Z,5.07
2022-10-28T14:20:59.112Z,4.75
2022-10-28T14:25:01.101Z,6.63
2022-10-28T14:29:23.520Z,4.65
2022-10-28T14:33:25.114Z,3.90
2022-10-28T14:37:35.386Z,3.22
2022-10-28T14:41:58.589Z,7.63
2022-10-28T14:46:28.384Z,2.83
2022-10-28T14:50:40.282Z,5.78
2022-10-28T14:54:51.036Z,3.38
2022-10-28T14:58:54.848Z,3.92
2022-10-28T15:02:56.492Z,3.13
2022-10-28T15:06:58.948Z,3.47
2022-10-28T15:11:00.609Z,4.25
2022-10-28T15:15:02.243Z,3.83
2022-10-28T15:19:07.292Z,2.58
2022-10-28T15:23:23.269Z,3.72
2022-10-28T15:27:27.929Z,5.75
2022-10-28T15:31:29.658Z,3.70
2022-10-28T15:35:33.085Z,4.78
2022-10-28T15:39:34.970Z,3.45
2022-10-28T15:43:37.526Z,3.83
2022-10-28T15:47:39.184Z,3.97
2022-10-28T15:51:40.804Z,1.73
2022-10-28T16:00:25.870Z,3.47
2022-10-28T16:04:39.596Z,4.30
2022-10-28T16:08:41.393Z,2.80
2022-10-28T16:12:45.327Z,5.28
2022-10-28T16:16:47.270Z,4.35
2022-10-28T16:20:49.443Z,2.97
2022-10-28T16:24:53.372Z,6.45
2022-10-28T16:28:54.955Z,6.57
2022-10-28T16:32:57.015Z,2.30
2022-10-28T16:36:58.800Z,2.17
2022-10-28T16:41:01.643Z,3.58
2022-10-28T16:45:04.760Z,4.55
2022-10-28T16:49:06.387Z,4.07
2022-10-28T16:53:11.813Z,3.65
2022-10-28T16:57:13.640Z,3.67
2022-10-28T17:01:20.188Z,3.53
2022-10-28T17:05:23.738Z,2.42
2022-10-28T17:09:25.355Z,3.53
2022-10-28T17:13:26.985Z,2.55
2022-10-28T17:17:28.624Z,5.55
2022-10-28T17:21:30.583Z,4.25
2022-10-28T17:25:32.582Z,3.55
2022-10-28T17:29:34.677Z,3.97
2022-10-28T17:33:36.411Z,5.05
2022-10-28T17:37:38.068Z,2.45
2022-10-28T17:41:39.682Z,3.17
2022-10-28T17:45:41.308Z,5.53
2022-10-28T17:49:42.902Z,2.53
2022-10-28T17:53:44.514Z,5.00
2022-10-28T17:57:46.188Z,2.38
2022-10-28T18:01:47.860Z,2.28
2022-10-28T18:05:49.595Z,2.45
2022-10-28T18:09:51.208Z,3.97
2022-10-28T18:13:55.128Z,2.90
2022-10-28T18:17:56.717Z,3.10
2022-10-28T18:21:58.365Z,2.20
2022-10-28T18:26:04.831Z,2.63
2022-10-28T18:30:07.030Z,3.28
2022-10-28T18:34:08.698Z,2.67
2022-10-28T18:38:10.365Z,3.63
2022-10-28T18:42:12.513Z,3.55
2022-10-28T18:46:14.943Z,2.35
2022-10-28T18:50:17.152Z,2.78
2022-10-28T18:54:18.797Z,2.22
2022-10-28T18:58:20.389Z,3.15
2022-10-28T19:02:22.118Z,2.10
2022-10-28T19:06:26.089Z,2.83
2022-10-28T19:10:27.686Z,2.63
2022-10-28T19:14:29.255Z,3.75
2022-10-28T19:18:35.309Z,2.72
2022-10-28T19:26:39.356Z,2.22
2022-10-28T19:30:40.955Z,1.77
2022-10-28T19:34:42.540Z,3.47
2022-10-28T19:38:45.372Z,2.80
2022-10-28T19:42:46.967Z,2.38
2022-10-28T19:46:48.839Z,1.75
2022-10-28T19:50:50.530Z,3.13
2022-10-28T19:54:53.209Z,2.17
2022-10-28T19:58:57.213Z,1.83
2022-10-28T20:02:58.785Z,1.90
2022-10-28T20:07:00.496Z,2.35
2022-10-28T20:11:04.980Z,1.77
2022-10-28T20:15:07.258Z,2.00
2022-10-28T20:19:09.197Z,3.75
2022-10-28T20:23:10.781Z,1.73
2022-10-28T20:27:12.401Z,1.75
2022-10-28T20:31:16.338Z,2.83
2022-10-28T20:35:18.991Z,2.53
2022-10-28T20:39:20.984Z,2.30
2022-10-28T20:43:24.392Z,2.22
2022-10-28T20:47:25.978Z,2.30
2022-10-28T20:51:29.922Z,2.78
2022-10-28T20:55:31.537Z,2.58
2022-10-28T20:59:33.129Z,2.15
2022-10-28T21:03:34.885Z,2.00
2022-10-28T21:07:36.475Z,3.47
2022-10-28T21:11:38.077Z,2.72
2022-10-28T21:15:40.823Z,2.22
2022-10-28T21:19:42.403Z,1.85
2022-10-28T21:23:43.992Z,2.13
2022-10-28T21:27:45.565Z,4.93
2022-10-28T21:31:47.239Z,2.42
2022-10-28T21:35:56.081Z,2.83
2022-10-28T21:40:00.886Z,1.75
2022-10-28T21:44:05.029Z,2.93
2022-10-28T21:48:06.919Z,2.22
2022-10-28T21:52:08.520Z,4.35
2022-10-28T21:56:18.077Z,5.03
2022-10-28T22:00:20.363Z,2.00
2022-10-28T22:04:21.953Z,2.85
2022-10-28T22:08:23.603Z,3.17
2022-10-28T22:12:25.185Z,2.05
2022-10-28T22:16:28.996Z,1.88
2022-10-28T22:20:30.606Z,1.67
2022-10-28T22:24:32.176Z,2.63
2022-10-28T22:28:34.580Z,2.70
2022-10-28T22:32:36.200Z,1.98
2022-10-28T22:36:37.960Z,2.53
2022-10-28T22:40:39.533Z,2.40
2022-10-28T22:44:41.153Z,1.75
2022-10-28T22:48:43.150Z,4.53
2022-10-28T22:52:44.769Z,3.03
2022-10-28T22:56:46.348Z,2.33
2022-10-28T23:00:48.612Z,2.22
2022-10-28T23:04:50.273Z,1.92
2022-10-28T23:08:52.465Z,3.00
2022-10-28T23:13:01.232Z,2.58
2022-10-28T23:17:02.807Z,3.20
2022-10-28T23:21:06.537Z,1.92
2022-10-28T23:25:08.596Z,2.55
2022-10-28T23:29:10.205Z,3.95
2022-10-28T23:33:11.876Z,1.80
2022-10-28T23:37:15.586Z,2.10
2022-10-28T23:41:18.772Z,2.13
2022-10-28T23:45:20.858Z,2.55
2022-10-28T23:49:22.423Z,2.50
2022-10-28T23:53:24.628Z,1.92
2022-10-28T23:57:26.253Z,2.78
